createdAt,value
2022-08-17T00:00:34.618Z,29.02
2022-08-17T00:03:08.401Z,31.92
2022-08-17T00:05:42.113Z,24.58
2022-08-17T00:08:11.341Z,24.92
2022-08-17T00:10:41.253Z,29.55
2022-08-17T00:13:12.501Z,27.77
2022-08-17T00:15:40.888Z,25.88
2022-08-17T00:19:06.541Z,29.63
2022-08-17T00:20:58.264Z,26.88
2022-08-17T00:23:27.110Z,32.35
2022-08-17T00:25:56.793Z,35.00
2022-08-17T00:28:25.956Z,25.20
2022-08-17T00:30:55.215Z,30.67
2022-08-17T00:33:26.932Z,26.25
2022-08-17T00:35:56.778Z,30.75
2022-08-17T00:38:25.706Z,30.33
2022-08-17T00:40:59.650Z,29.45
2022-08-17T00:43:32.101Z,33.85
2022-08-17T00:46:02.069Z,33.92
2022-08-17T00:48:31.222Z,30.25
2022-08-17T00:51:06.721Z,28.42
2022-08-17T00:53:38.377Z,29.73
2022-08-17T00:56:10.325Z,27.55
2022-08-17T00:58:39.527Z,29.13
2022-08-17T01:01:12.514Z,25.02
2022-08-17T01:03:49.901Z,26.27
2022-08-17T01:06:19.054Z,36.42
2022-08-17T01:08:47.519Z,28.85
2022-08-17T01:11:24.771Z,27.27
2022-08-17T01:13:56.731Z,27.42
2022-08-17T01:16:27.771Z,27.17
2022-08-17T01:18:59.545Z,26.92
2022-08-17T01:21:33.861Z,29.52
2022-08-17T01:24:03.628Z,35.72
2022-08-17T01:26:34.398Z,33.75
2022-08-17T01:29:04.134Z,32.45
2022-08-17T01:31:38.523Z,30.70
2022-08-17T01:34:10.293Z,31.48
2022-08-17T01:36:40.412Z,35.53
2022-08-17T01:39:17.242Z,31.88
2022-08-17T01:41:46.690Z,32.67
2022-08-17T01:44:17.668Z,34.92
2022-08-17T01:46:45.585Z,36.40
2022-08-17T01:49:14.001Z,32.55
2022-08-17T01:51:42.063Z,31.13
2022-08-17T01:54:14.787Z,38.75
2022-08-17T01:56:47.244Z,37.35
2022-08-17T01:59:17.320Z,34.28
2022-08-17T02:01:46.699Z,36.38
2022-08-17T02:04:15.674Z,36.67
2022-08-17T02:06:47.083Z,37.33
2022-08-17T02:09:25.993Z,31.10
2022-08-17T02:11:57.778Z,30.75
2022-08-17T02:14:26.545Z,33.72
2022-08-17T02:16:56.174Z,29.90
2022-08-17T02:19:24.572Z,31.50
2022-08-17T02:21:54.956Z,39.67
2022-08-17T02:24:59.932Z,33.17
2022-08-17T02:27:15.438Z,39.75
2022-08-17T02:29:43.542Z,41.05
2022-08-17T02:32:27.148Z,42.10
2022-08-17T02:34:57.099Z,35.15
2022-08-17T02:37:25.782Z,29.30
2022-08-17T02:39:57.080Z,33.30
2022-08-17T02:42:29.612Z,36.85
2022-08-17T02:44:57.676Z,35.45
2022-08-17T02:47:25.702Z,44.45
2022-08-17T02:49:55.786Z,37.50
2022-08-17T02:52:42.881Z,30.00
2022-08-17T02:55:16.685Z,35.00
2022-08-17T02:57:45.611Z,33.17
2022-08-17T03:00:16.869Z,31.10
2022-08-17T03:02:45.907Z,32.95
2022-08-17T03:05:16.646Z,30.08
2022-08-17T03:07:44.878Z,36.80
2022-08-17T03:10:17.630Z,40.28
2022-08-17T03:12:46.837Z,38.30
2022-08-17T03:15:21.237Z,45.70
2022-08-17T03:17:52.466Z,43.83
2022-08-17T03:20:21.366Z,44.25
2022-08-17T03:22:53.462Z,40.28
2022-08-17T03:25:25.998Z,41.15
2022-08-17T03:27:55.474Z,45.85
2022-08-17T03:30:24.806Z,47.72
2022-08-17T03:32:55.782Z,44.65
2022-08-17T03:35:32.786Z,40.13
2022-08-17T03:38:02.111Z,36.13
2022-08-17T03:40:41.836Z,40.70
2022-08-17T03:43:23.036Z,44.42
2022-08-17T03:46:27.103Z,41.22
2022-08-17T03:49:15.591Z,39.72
2022-08-17T03:52:01.064Z,44.88
2022-08-17T03:54:46.321Z,40.67
2022-08-17T03:57:16.519Z,37.88
2022-08-17T03:59:45.308Z,43.80
2022-08-17T04:02:18.875Z,38.63
2022-08-17T04:04:47.112Z,43.92
2022-08-17T04:07:15.174Z,40.25
2022-08-17T04:09:43.774Z,39.30
2022-08-17T04:12:12.748Z,42.58
2022-08-17T04:14:53.740Z,36.70
2022-08-17T04:17:24.378Z,42.53
2022-08-17T04:19:53.010Z,44.20
2022-08-17T04:22:33.318Z,42.92
2022-08-17T04:25:05.972Z,42.97
2022-08-17T04:27:34.306Z,42.63
2022-08-17T04:30:04.126Z,37.10
2022-08-17T04:33:04.895Z,43.60
2022-08-17T04:35:23.755Z,39.33
2022-08-17T04:37:52.542Z,40.97
2022-08-17T04:40:40.615Z,43.65
2022-08-17T04:43:13.944Z,44.90
2022-08-17T04:45:54.871Z,41.60
2022-08-17T04:48:29.856Z,39.10
2022-08-17T04:51:07.473Z,42.92
2022-08-17T04:53:35.764Z,41.92
2022-08-17T04:56:04.267Z,34.20
2022-08-17T04:58:32.404Z,42.65
2022-08-17T05:01:02.062Z,39.90
2022-08-17T05:03:30.734Z,50.97
2022-08-17T05:05:58.880Z,38.78
2022-08-17T05:08:27.220Z,40.70
2022-08-17T05:10:55.522Z,41.88
2022-08-17T05:13:26.669Z,40.70
2022-08-17T05:15:57.554Z,42.00
2022-08-17T05:18:28.113Z,39.17
2022-08-17T05:20:58.153Z,44.90
2022-08-17T05:23:35.521Z,39.17
2022-08-17T05:26:25.589Z,39.67
2022-08-17T05:28:55.471Z,52.42
2022-08-17T05:31:29.501Z,36.22
2022-08-17T05:33:59.522Z,42.20
2022-08-17T05:36:43.622Z,44.63
2022-08-17T05:39:16.680Z,41.10
2022-08-17T05:41:47.739Z,37.88
2022-08-17T05:44:16.326Z,43.80
2022-08-17T05:46:49.840Z,42.42
2022-08-17T05:49:24.112Z,37.25
2022-08-17T05:52:14.359Z,38.40
2022-08-17T05:55:03.340Z,39.30
2022-08-17T05:57:53.113Z,37.42
2022-08-17T06:00:30.914Z,35.38
2022-08-17T06:03:23.779Z,36.20
2022-08-17T06:06:09.020Z,40.45
2022-08-17T06:08:51.501Z,37.85
2022-08-17T06:11:29.190Z,36.83
2022-08-17T06:14:14.908Z,37.25
2022-08-17T06:16:46.022Z,36.05
2022-08-17T06:19:18.293Z,30.27
2022-08-17T06:21:52.349Z,33.45
2022-08-17T06:24:28.614Z,35.50
2022-08-17T06:27:01.188Z,30.90
2022-08-17T06:29:43.062Z,33.65
2022-08-17T06:32:14.519Z,30.85
2022-08-17T06:34:45.077Z,29.02
2022-08-17T06:37:28.977Z,35.08
2022-08-17T06:40:13.719Z,31.95
2022-08-17T06:42:58.809Z,33.55
2022-08-17T06:45:38.972Z,30.50
2022-08-17T06:48:14.088Z,27.60
2022-08-17T06:50:48.897Z,32.22
2022-08-17T06:53:25.809Z,26.90
2022-08-17T06:56:00.012Z,31.35
2022-08-17T06:58:31.482Z,35.05
2022-08-17T07:01:07.488Z,26.88
2022-08-17T07:03:42.087Z,34.00
2022-08-17T07:06:15.845Z,28.75
2022-08-17T07:08:55.015Z,20.23
2022-08-17T07:11:28.945Z,28.20
2022-08-17T07:14:07.657Z,27.73
2022-08-17T07:16:41.533Z,25.75
2022-08-17T07:19:10.928Z,26.55
2022-08-17T07:21:49.324Z,25.35
2022-08-17T07:24:34.469Z,26.17
2022-08-17T07:27:09.652Z,23.63
2022-08-17T07:29:49.632Z,26.75
2022-08-17T07:32:23.414Z,25.02
2022-08-17T07:35:21.269Z,24.15
2022-08-17T07:37:53.328Z,21.88
2022-08-17T07:40:27.657Z,21.88
2022-08-17T07:43:06.004Z,24.02
2022-08-17T07:45:55.733Z,23.40
2022-08-17T07:48:27.682Z,24.80
2022-08-17T07:50:57.310Z,23.60
2022-08-17T07:53:27.553Z,22.50
2022-08-17T07:55:56.984Z,21.52
2022-08-17T07:58:26.494Z,25.17
2022-08-17T08:01:09.103Z,23.08
2022-08-17T08:03:43.967Z,23.17
2022-08-17T08:06:21.081Z,21.55
2022-08-17T08:08:54.818Z,22.55
2022-08-17T08:11:40.129Z,23.42
2022-08-17T08:14:28.561Z,24.17
2022-08-17T08:17:02.153Z,20.15
2022-08-17T08:19:31.861Z,20.58
2022-08-17T08:22:09.488Z,22.35
2022-08-17T08:24:55.458Z,23.35
2022-08-17T08:27:35.817Z,23.70
2022-08-17T08:30:12.201Z,23.50
2022-08-17T08:33:04.705Z,18.95
2022-08-17T08:35:34.543Z,21.50
2022-08-17T08:38:15.600Z,21.80
2022-08-17T08:41:03.074Z,19.98
2022-08-17T08:43:45.789Z,18.42
2022-08-17T08:46:27.990Z,16.98
2022-08-17T08:49:12.698Z,17.50
2022-08-17T08:51:53.111Z,18.85
2022-08-17T08:54:35.028Z,16.08
2022-08-17T08:57:33.695Z,17.13
2022-08-17T09:00:17.680Z,21.98
2022-08-17T09:03:04.811Z,17.40
2022-08-17T09:05:45.809Z,21.13
2022-08-17T09:08:24.640Z,19.58
2022-08-17T09:11:03.248Z,19.25
2022-08-17T09:13:41.760Z,22.80
2022-08-17T09:16:17.366Z,17.83
2022-08-17T09:19:00.093Z,18.95
2022-08-17T09:21:38.391Z,21.92
2022-08-17T09:24:24.189Z,22.30
2022-08-17T09:26:59.257Z,19.73
2022-08-17T09:29:30.517Z,17.15
2022-08-17T09:32:03.946Z,18.85
2022-08-17T09:34:36.548Z,13.82
2022-08-17T09:37:19.225Z,15.43
2022-08-17T09:39:56.751Z,16.42
2022-08-17T09:42:33.876Z,15.98
2022-08-17T09:45:17.383Z,14.07
2022-08-17T09:47:55.132Z,17.65
2022-08-17T09:51:01.624Z,13.30
2022-08-17T09:53:17.912Z,16.05
2022-08-17T09:56:01.793Z,15.40
2022-08-17T09:58:40.597Z,15.15
2022-08-17T10:01:22.739Z,15.70
2022-08-17T10:04:09.972Z,12.45
2022-08-17T10:06:50.244Z,12.13
2022-08-17T10:09:32.060Z,11.15
2022-08-17T10:12:20.598Z,11.60
2022-08-17T10:15:08.077Z,10.80
2022-08-17T10:17:49.823Z,12.73
2022-08-17T10:20:26.775Z,13.45
2022-08-17T10:23:18.539Z,10.90
2022-08-17T10:26:09.371Z,11.48
2022-08-17T10:28:41.783Z,9.07
2022-08-17T10:34:36.211Z,11.43
2022-08-17T10:37:43.475Z,6.55
2022-08-17T10:40:26.455Z,10.30
2022-08-17T10:43:00.489Z,10.55
2022-08-17T10:45:35.332Z,10.35
2022-08-17T10:48:27.166Z,8.13
2022-08-17T10:51:08.132Z,10.25
2022-08-17T10:54:01.826Z,12.15
2022-08-17T10:56:48.443Z,13.32
2022-08-17T10:59:50.619Z,15.23
2022-08-17T11:02:37.645Z,11.60
2022-08-17T11:05:29.068Z,12.45
2022-08-17T11:08:14.290Z,11.52
2022-08-17T11:11:08.093Z,10.43
2022-08-17T11:13:44.953Z,11.13
2022-08-17T11:16:39.226Z,10.35
2022-08-17T11:19:38.358Z,10.60
2022-08-17T11:22:38.983Z,11.27
2022-08-17T11:25:17.331Z,12.38
2022-08-17T11:27:53.811Z,8.07
2022-08-17T11:30:47.022Z,9.15
2022-08-17T11:33:53.896Z,7.68
2022-08-17T11:36:34.862Z,11.98
2022-08-17T11:39:06.508Z,12.35
2022-08-17T11:41:46.196Z,12.07
2022-08-17T11:44:37.984Z,11.45
2022-08-17T11:47:37.142Z,10.68
2022-08-17T11:50:48.962Z,8.18
2022-08-17T11:54:31.246Z,11.38
2022-08-17T11:56:52.017Z,12.95
2022-08-17T11:59:59.770Z,8.65
2022-08-17T12:02:47.868Z,9.52
2022-08-17T12:05:37.895Z,11.00
2022-08-17T12:08:17.845Z,11.60
2022-08-17T12:11:00.302Z,9.90
2022-08-17T12:13:37.052Z,12.00
2022-08-17T12:16:10.011Z,10.95
2022-08-17T12:18:42.211Z,9.23
2022-08-17T12:21:24.434Z,10.00
2022-08-17T12:24:00.779Z,12.20
2022-08-17T12:26:33.118Z,9.65
2022-08-17T12:29:03.794Z,10.05
2022-08-17T12:31:43.393Z,10.23
2022-08-17T12:34:17.888Z,8.23
2022-08-17T12:36:47.606Z,12.27
2022-08-17T12:39:21.628Z,11.25
2022-08-17T12:42:02.006Z,12.20
2022-08-17T12:44:33.124Z,9.63
2022-08-17T12:47:11.096Z,9.75
2022-08-17T12:49:42.481Z,10.68
2022-08-17T12:52:15.482Z,10.02
2022-08-17T12:54:52.525Z,10.60
2022-08-17T12:57:23.651Z,13.15
2022-08-17T12:59:55.705Z,8.73
2022-08-17T13:02:31.573Z,12.02
2022-08-17T13:05:02.142Z,8.43
2022-08-17T13:07:35.151Z,9.60
2022-08-17T13:10:04.576Z,8.75
2022-08-17T13:12:35.494Z,10.25
2022-08-17T13:15:04.178Z,11.32
2022-08-17T13:17:36.982Z,9.80
2022-08-17T13:20:07.183Z,8.95
2022-08-17T13:22:35.468Z,8.15
2022-08-17T13:25:08.583Z,9.38
2022-08-17T13:27:38.291Z,9.10
2022-08-17T13:30:12.423Z,11.25
2022-08-17T13:32:46.547Z,8.82
2022-08-17T13:35:48.802Z,9.90
2022-08-17T13:38:36.548Z,11.32
2022-08-17T13:41:07.615Z,11.95
2022-08-17T13:43:45.627Z,9.38
2022-08-17T13:46:22.696Z,12.45
2022-08-17T13:49:01.694Z,9.23
2022-08-17T13:51:35.770Z,11.73
2022-08-17T13:54:26.993Z,12.00
2022-08-17T13:57:01.571Z,10.35
2022-08-17T13:59:54.434Z,9.52
2022-08-17T14:02:28.335Z,9.63
2022-08-17T14:05:00.580Z,11.13
2022-08-17T14:07:33.846Z,11.15
2022-08-17T14:10:05.758Z,10.23
2022-08-17T14:12:36.242Z,10.40
2022-08-17T14:15:05.303Z,9.30
2022-08-17T14:17:38.129Z,12.00
2022-08-17T14:20:11.445Z,11.23
2022-08-17T14:22:45.489Z,8.50
2022-08-17T14:25:16.594Z,9.60
2022-08-17T14:27:52.924Z,11.80
2022-08-17T14:30:24.008Z,10.30
2022-08-17T14:32:52.963Z,13.85
2022-08-17T14:35:25.635Z,12.70
2022-08-17T14:37:54.443Z,11.85
2022-08-17T14:40:25.455Z,12.98
2022-08-17T14:42:55.829Z,14.88
2022-08-17T14:45:27.382Z,11.02
2022-08-17T14:48:02.976Z,10.98
2022-08-17T14:50:35.294Z,14.32
2022-08-17T14:53:06.495Z,18.77
2022-08-17T14:55:36.189Z,13.27
2022-08-17T14:58:05.151Z,11.60
2022-08-17T15:00:33.823Z,11.07
2022-08-17T15:03:02.253Z,12.05
2022-08-17T15:05:34.094Z,12.85
2022-08-17T15:08:04.016Z,12.30
2022-08-17T15:10:32.990Z,11.55
2022-08-17T15:13:03.257Z,9.23
2022-08-17T15:15:32.061Z,13.63
2022-08-17T15:18:01.159Z,12.65
2022-08-17T15:20:30.929Z,13.52
2022-08-17T15:23:00.609Z,13.45
2022-08-17T15:25:32.492Z,10.50
2022-08-17T15:28:01.624Z,12.23
2022-08-17T15:30:32.069Z,20.08
2022-08-17T15:33:02.182Z,16.85
2022-08-17T15:35:34.431Z,16.27
2022-08-17T15:38:11.734Z,10.63
2022-08-17T15:40:43.174Z,15.07
2022-08-17T15:43:13.998Z,10.18
2022-08-17T15:45:42.368Z,12.15
2022-08-17T15:48:10.740Z,11.30
2022-08-17T15:50:38.838Z,21.38
2022-08-17T15:53:08.256Z,13.13
2022-08-17T15:55:38.438Z,9.40
2022-08-17T15:58:07.108Z,10.88
2022-08-17T16:00:50.431Z,12.60
2022-08-17T16:03:58.385Z,9.38
2022-08-17T16:06:13.562Z,10.65
2022-08-17T16:08:44.906Z,8.13
2022-08-17T16:11:14.554Z,12.48
2022-08-17T16:13:54.530Z,9.75
2022-08-17T16:16:26.119Z,12.95
2022-08-17T16:18:58.638Z,13.88
2022-08-17T16:21:29.613Z,38.25
2022-08-17T16:24:03.657Z,9.00
2022-08-17T16:26:34.155Z,11.75
2022-08-17T16:29:07.137Z,13.40
2022-08-17T16:31:36.099Z,10.85
2022-08-17T16:34:17.482Z,9.48
2022-08-17T16:36:54.978Z,15.32
2022-08-17T16:39:27.186Z,13.02
2022-08-17T16:41:56.397Z,13.90
2022-08-17T16:44:24.872Z,14.63
2022-08-17T16:46:53.512Z,10.85
2022-08-17T16:49:35.952Z,15.23
2022-08-17T16:52:10.049Z,12.15
2022-08-17T16:54:44.324Z,10.30
2022-08-17T16:57:12.853Z,17.63
2022-08-17T16:59:48.716Z,10.48
2022-08-17T17:02:25.217Z,10.73
2022-08-17T17:04:57.675Z,12.98
2022-08-17T17:07:55.531Z,9.93
2022-08-17T17:10:29.880Z,10.68
2022-08-17T17:13:03.880Z,12.48
2022-08-17T17:15:47.427Z,11.13
2022-08-17T17:18:17.347Z,24.95
2022-08-17T17:20:52.329Z,13.13
2022-08-17T17:23:36.063Z,12.90
2022-08-17T17:26:20.617Z,15.07
2022-08-17T17:29:24.365Z,13.43
2022-08-17T17:32:03.829Z,17.48
2022-08-17T17:34:50.534Z,14.18
2022-08-17T17:37:26.493Z,14.18
2022-08-17T17:39:57.961Z,12.00
2022-08-17T17:42:31.622Z,13.82
2022-08-17T17:45:06.115Z,11.88
2022-08-17T17:47:50.680Z,12.13
2022-08-17T17:50:40.849Z,9.88
2022-08-17T17:53:35.488Z,12.25
2022-08-17T17:56:43.100Z,12.93
2022-08-17T17:59:33.493Z,11.65
2022-08-17T18:02:36.081Z,12.13
2022-08-17T18:05:14.146Z,12.30
2022-08-17T18:07:46.585Z,13.07
2022-08-17T18:10:29.568Z,11.82
2022-08-17T18:13:10.282Z,13.93
2022-08-17T18:15:51.206Z,11.38
2022-08-17T18:18:44.781Z,13.00
2022-08-17T18:21:17.062Z,13.43
2022-08-17T18:23:48.909Z,11.35
2022-08-17T18:26:37.705Z,19.10
2022-08-17T18:29:23.846Z,15.63
2022-08-17T18:32:15.304Z,15.23
2022-08-17T18:34:47.618Z,10.45
2022-08-17T18:37:33.038Z,17.65
2022-08-17T18:40:24.348Z,14.18
2022-08-17T18:43:01.084Z,14.77
2022-08-17T18:45:34.450Z,13.48
2022-08-17T18:48:04.612Z,13.63
2022-08-17T18:50:41.561Z,13.98
2022-08-17T18:53:38.649Z,13.15
2022-08-17T18:56:41.815Z,12.93
2022-08-17T18:59:23.457Z,14.35
2022-08-17T19:02:34.630Z,12.88
2022-08-17T19:05:14.623Z,16.67
2022-08-17T19:07:45.319Z,19.33
2022-08-17T19:10:23.072Z,13.32
2022-08-17T19:13:00.307Z,15.02
2022-08-17T19:15:36.033Z,14.43
2022-08-17T19:18:15.743Z,14.95
2022-08-17T19:20:52.036Z,12.43
2022-08-17T19:23:25.100Z,18.10
2022-08-17T19:25:55.841Z,14.95
2022-08-17T19:28:31.439Z,14.63
2022-08-17T19:31:10.967Z,17.63
2022-08-17T19:33:39.631Z,17.95
2022-08-17T19:36:14.418Z,18.85
2022-08-17T19:38:50.613Z,17.35
2022-08-17T19:41:24.670Z,16.23
2022-08-17T19:44:14.760Z,22.25
2022-08-17T19:46:56.276Z,22.30
2022-08-17T19:49:41.228Z,17.10
2022-08-17T19:52:31.647Z,19.25
2022-08-17T19:55:07.658Z,17.48
2022-08-17T19:57:44.953Z,17.25
2022-08-17T20:00:17.161Z,19.25
2022-08-17T20:02:55.060Z,18.23
2022-08-17T20:05:26.926Z,16.52
2022-08-17T20:08:03.524Z,18.20
2022-08-17T20:10:39.626Z,19.15
2022-08-17T20:13:18.466Z,20.85
2022-08-17T20:16:01.294Z,16.30
2022-08-17T20:18:36.682Z,19.15
2022-08-17T20:21:20.491Z,18.73
2022-08-17T20:23:54.946Z,19.50
2022-08-17T20:26:28.146Z,24.45
2022-08-17T20:29:09.327Z,17.65
2022-08-17T20:31:44.810Z,20.95
2022-08-17T20:34:37.392Z,21.00
2022-08-17T20:37:09.499Z,21.45
2022-08-17T20:39:43.158Z,21.38
2022-08-17T20:42:31.715Z,19.50
2022-08-17T20:45:05.401Z,22.83
2022-08-17T20:47:36.962Z,19.45
2022-08-17T20:50:09.373Z,19.63
2022-08-17T20:52:49.495Z,22.13
2022-08-17T20:55:53.288Z,19.95
2022-08-17T20:58:47.514Z,20.42
2022-08-17T21:01:20.287Z,18.20
2022-08-17T21:03:54.295Z,24.20
2022-08-17T21:06:24.904Z,18.98
2022-08-17T21:08:59.880Z,22.42
2022-08-17T21:12:03.993Z,25.90
2022-08-17T21:14:46.304Z,22.67
2022-08-17T21:17:34.949Z,21.95
2022-08-17T21:20:11.815Z,21.42
2022-08-17T21:22:52.915Z,22.48
2022-08-17T21:25:50.310Z,25.77
2022-08-17T21:28:34.259Z,21.60
2022-08-17T21:31:09.135Z,20.48
2022-08-17T21:33:39.346Z,26.17
2022-08-17T21:36:27.482Z,21.17
2022-08-17T21:39:08.768Z,21.38
2022-08-17T21:41:52.863Z,24.83
2022-08-17T21:44:32.116Z,26.92
2022-08-17T21:47:15.198Z,22.67
2022-08-17T21:49:43.604Z,22.63
2022-08-17T21:52:15.198Z,23.35
2022-08-17T21:54:51.390Z,26.42
2022-08-17T21:57:22.591Z,26.20
2022-08-17T21:59:56.146Z,26.35
2022-08-17T22:02:29.718Z,24.65
2022-08-17T22:05:00.075Z,24.90
2022-08-17T22:07:41.017Z,26.10
2022-08-17T22:10:30.610Z,28.80
2022-08-17T22:13:16.395Z,27.95
2022-08-17T22:15:48.878Z,26.50
2022-08-17T22:18:22.758Z,26.73
2022-08-17T22:20:54.207Z,26.27
2022-08-17T22:23:42.643Z,23.27
2022-08-17T22:26:13.986Z,29.08
2022-08-17T22:28:46.262Z,24.48
2022-08-17T22:31:17.867Z,26.55
2022-08-17T22:33:48.226Z,25.98
2022-08-17T22:36:29.225Z,26.08
2022-08-17T22:38:59.879Z,26.65
2022-08-17T22:41:44.536Z,28.63
2022-08-17T22:44:25.197Z,22.90
2022-08-17T22:46:58.779Z,25.75
2022-08-17T22:49:32.457Z,28.48
2022-08-17T22:52:03.397Z,26.02
2022-08-17T22:54:49.635Z,25.73
2022-08-17T22:57:36.637Z,23.60
2022-08-17T23:00:06.873Z,23.33
2022-08-17T23:02:36.659Z,26.63
2022-08-17T23:05:22.857Z,24.20
2022-08-17T23:07:53.676Z,22.92
2022-08-17T23:10:21.678Z,27.70
2022-08-17T23:12:49.599Z,27.10
2022-08-17T23:15:19.827Z,27.13
2022-08-17T23:17:49.281Z,24.25
2022-08-17T23:20:17.946Z,29.60
2022-08-17T23:22:52.145Z,24.45
2022-08-17T23:25:28.286Z,29.58
2022-08-17T23:27:57.444Z,27.83
2022-08-17T23:30:28.457Z,32.17
2022-08-17T23:33:01.346Z,24.42
2022-08-17T23:35:39.241Z,27.88
2022-08-17T23:38:09.865Z,27.95
2022-08-17T23:40:39.560Z,27.77
2022-08-17T23:43:24.825Z,28.27
2022-08-17T23:45:57.639Z,28.10
2022-08-17T23:48:35.227Z,28.63
2022-08-17T23:51:08.826Z,28.77
2022-08-17T23:53:42.575Z,29.27
2022-08-17T23:56:11.812Z,31.25
2022-08-17T23:58:42.111Z,30.40
